Terminal Aerodrome Forecast
Issued by NWS

Home | Current Version | Previous Version | Text Only | Print | Product List | Glossary On
Versions: 1 2 3 4 5 6 7 8 9 10 11 12 13 14 15 16 17 18 19 20 21 22 23 24 25 26 27 28 29 30 31 32 33 34 35 36 37 38 39 40 41 42 43 44 45 46 47 48 49 50
584
FTUS44 KBMX 292355
TAFASN
TAF
KASN 292355Z 3000/3024 19004KT P6SM VCSH SCT050 BKN100
     FM300100 23002KT P6SM VCTS BKN035CB BKN100
      TEMPO 3001/3002 VRB10G20KT 4SM -TSRA BKN025CB OVC100
     FM300300 22003KT P6SM SCT050 BKN100
     FM301300 25004KT P6SM OVC025 PROB30 3013/3016 5SM -TSRA
      BKN025CB
     FM301600 25004KT P6SM VCTS BKN035CB=

USA.gov is the U.S. government's official web portal to all federal, state and local government web resources and services.